createdAt,value
2017-12-15T00:00:20.556Z,51.40
2017-12-15T00:00:52.238Z,51.42
2017-12-15T00:01:23.863Z,51.52
2017-12-15T00:01:55.495Z,51.52
2017-12-15T00:02:27.357Z,51.56
2017-12-15T00:02:58.986Z,51.54
2017-12-15T00:03:30.610Z,51.67
2017-12-15T00:04:02.352Z,51.64
2017-12-15T00:04:33.990Z,51.78
2017-12-15T00:05:05.666Z,51.82
2017-12-15T00:05:37.294Z,51.86
2017-12-15T00:06:08.926Z,51.92
2017-12-15T00:06:40.869Z,51.99
2017-12-15T00:07:12.510Z,52.07
2017-12-15T00:07:44.341Z,52.07
2017-12-15T00:08:16.102Z,52.11
2017-12-15T00:08:47.741Z,52.14
2017-12-15T00:09:19.386Z,52.12
2017-12-15T00:09:51.025Z,52.12
2017-12-15T00:10:22.702Z,52.16
2017-12-15T00:10:54.328Z,52.20
2017-12-15T00:11:26.261Z,52.12
2017-12-15T00:11:57.902Z,52.26
2017-12-15T00:12:29.544Z,52.30
2017-12-15T00:13:01.184Z,52.38
2017-12-15T00:13:32.825Z,52.44
2017-12-15T00:14:04.466Z,52.42
2017-12-15T00:14:36.109Z,52.43
2017-12-15T00:15:08.061Z,52.49
2017-12-15T00:15:40.010Z,52.48
2017-12-15T00:16:11.682Z,52.55
2017-12-15T00:16:43.302Z,52.56
2017-12-15T00:17:15.162Z,52.53
2017-12-15T00:17:46.790Z,52.56
2017-12-15T00:18:18.528Z,52.66
2017-12-15T00:18:50.166Z,52.86
2017-12-15T00:19:21.981Z,52.85
2017-12-15T00:19:53.606Z,52.87
2017-12-15T00:20:25.242Z,52.95
2017-12-15T00:20:56.875Z,52.95
2017-12-15T00:21:28.551Z,53.05
2017-12-15T00:22:00.174Z,53.04
2017-12-15T00:22:31.805Z,52.96
2017-12-15T00:23:03.426Z,53.08
2017-12-15T00:23:35.059Z,53.14
2017-12-15T00:24:06.895Z,53.11
2017-12-15T00:24:38.541Z,53.24
2017-12-15T00:25:10.415Z,53.74
2017-12-15T00:25:42.038Z,53.56
2017-12-15T00:26:13.769Z,53.62
2017-12-15T00:26:45.459Z,53.56
2017-12-15T00:27:17.085Z,53.58
2017-12-15T00:27:48.719Z,53.54
2017-12-15T00:28:20.351Z,53.60
2017-12-15T00:28:52.180Z,53.69
2017-12-15T00:29:23.938Z,53.77
2017-12-15T00:29:55.878Z,53.81
2017-12-15T00:30:27.517Z,53.91
2017-12-15T00:30:59.158Z,53.98
2017-12-15T00:31:30.800Z,54.01
2017-12-15T00:32:02.466Z,53.93
2017-12-15T00:32:34.114Z,54.06
2017-12-15T00:33:05.738Z,54.17
2017-12-15T00:33:37.372Z,54.21
2017-12-15T00:34:09.010Z,54.24
2017-12-15T00:34:40.653Z,54.26
2017-12-15T00:35:12.486Z,54.28
2017-12-15T00:35:44.245Z,54.45
2017-12-15T00:36:15.910Z,54.48
2017-12-15T00:36:47.578Z,54.61
2017-12-15T00:37:19.478Z,54.61
2017-12-15T00:37:51.118Z,54.63
2017-12-15T00:38:22.746Z,54.60
2017-12-15T00:38:54.374Z,54.66
2017-12-15T00:39:26.047Z,54.68
2017-12-15T00:39:57.683Z,54.95
2017-12-15T00:40:29.328Z,54.93
2017-12-15T00:41:01.002Z,54.93
2017-12-15T00:41:32.629Z,54.89
2017-12-15T00:42:04.260Z,54.87
2017-12-15T00:42:36.089Z,54.94
2017-12-15T00:43:07.847Z,54.93
2017-12-15T00:43:39.796Z,54.96
2017-12-15T00:44:11.435Z,55.08
2017-12-15T00:44:43.084Z,55.01
2017-12-15T00:45:14.721Z,55.05
2017-12-15T00:45:46.363Z,55.11
2017-12-15T00:46:18.001Z,55.11
2017-12-15T00:46:49.646Z,55.16
2017-12-15T00:47:21.285Z,55.12
2017-12-15T00:47:52.930Z,55.10
2017-12-15T00:48:24.571Z,55.38
2017-12-15T00:48:56.212Z,55.27
2017-12-15T00:49:27.857Z,55.35
2017-12-15T00:49:59.499Z,55.40
2017-12-15T00:50:31.141Z,55.38
2017-12-15T00:51:02.779Z,55.44
2017-12-15T00:51:34.454Z,55.46
2017-12-15T00:52:06.078Z,55.59
2017-12-15T00:52:37.711Z,55.61
2017-12-15T00:53:09.349Z,55.56
2017-12-15T00:53:40.992Z,55.68
2017-12-15T00:54:12.650Z,55.60
2017-12-15T00:54:44.503Z,55.53
2017-12-15T00:55:16.130Z,55.56
2017-12-15T00:55:47.866Z,55.69
2017-12-15T00:56:19.508Z,55.67
2017-12-15T00:56:51.183Z,55.70
2017-12-15T00:57:22.842Z,56.02
2017-12-15T00:57:54.475Z,55.74
2017-12-15T00:58:26.107Z,55.88
2017-12-15T00:58:57.730Z,55.88
2017-12-15T00:59:29.667Z,55.88
2017-12-15T01:00:01.307Z,56.06
2017-12-15T01:00:32.948Z,55.92
2017-12-15T01:01:04.590Z,55.99
2017-12-15T01:01:36.232Z,56.03
2017-12-15T01:02:07.904Z,56.07
2017-12-15T01:02:39.538Z,56.11
2017-12-15T01:03:11.167Z,56.05
2017-12-15T01:03:43.029Z,56.23
2017-12-15T01:04:14.658Z,56.21
2017-12-15T01:04:46.394Z,56.17
2017-12-15T01:05:18.033Z,56.48
2017-12-15T01:05:49.678Z,56.50
2017-12-15T01:06:21.319Z,56.47
2017-12-15T01:06:52.957Z,56.54
2017-12-15T01:07:24.600Z,56.49
2017-12-15T01:07:56.242Z,56.71
2017-12-15T01:08:27.884Z,56.85
2017-12-15T01:08:59.550Z,56.58
2017-12-15T01:09:31.185Z,56.89
2017-12-15T01:10:03.084Z,56.61
2017-12-15T01:10:34.758Z,56.87
2017-12-15T01:11:06.400Z,56.88
2017-12-15T01:11:38.042Z,56.78
2017-12-15T01:12:09.687Z,56.94
2017-12-15T01:12:41.332Z,56.90
2017-12-15T01:13:12.954Z,56.90
2017-12-15T01:13:44.613Z,56.98
2017-12-15T01:14:16.282Z,57.04
2017-12-15T01:14:47.910Z,57.09
2017-12-15T01:15:19.846Z,57.18
2017-12-15T01:15:51.484Z,57.53
2017-12-15T01:16:23.127Z,57.28
2017-12-15T01:16:54.772Z,57.25
2017-12-15T01:17:26.402Z,57.48
2017-12-15T01:17:58.053Z,57.31
2017-12-15T01:18:29.694Z,57.38
2017-12-15T01:19:01.374Z,57.27
2017-12-15T01:19:32.995Z,56.96
2017-12-15T01:20:04.615Z,56.91
2017-12-15T01:20:36.262Z,56.98
2017-12-15T01:21:07.907Z,56.81
2017-12-15T01:21:39.546Z,56.85
2017-12-15T01:22:11.188Z,56.76
2017-12-15T01:22:42.832Z,56.80
2017-12-15T01:23:14.474Z,56.99
2017-12-15T01:23:46.421Z,56.99
2017-12-15T01:24:18.090Z,56.95
2017-12-15T01:24:49.718Z,56.98
2017-12-15T01:25:21.589Z,56.94
2017-12-15T01:25:53.218Z,56.83
2017-12-15T01:26:24.842Z,56.84
2017-12-15T01:26:56.583Z,56.86
2017-12-15T01:27:28.532Z,56.79
2017-12-15T01:28:00.173Z,56.83
2017-12-15T01:28:31.816Z,56.78
2017-12-15T01:29:03.454Z,56.76
2017-12-15T01:29:35.095Z,56.88
2017-12-15T01:30:06.763Z,56.62
2017-12-15T01:30:38.392Z,56.68
2017-12-15T01:31:10.030Z,56.74
2017-12-15T01:31:41.669Z,56.67
2017-12-15T01:32:13.616Z,56.62
2017-12-15T01:32:45.257Z,56.66
2017-12-15T01:33:17.207Z,56.67
2017-12-15T01:33:48.847Z,56.69
2017-12-15T01:34:20.530Z,56.75
2017-12-15T01:34:52.165Z,56.61
2017-12-15T01:35:23.791Z,56.57
2017-12-15T01:35:55.723Z,56.58
2017-12-15T01:36:27.362Z,56.54
2017-12-15T01:36:59.005Z,56.58
2017-12-15T01:37:30.649Z,56.53
2017-12-15T01:38:02.292Z,56.59
2017-12-15T01:38:33.931Z,56.51
2017-12-15T01:39:05.572Z,56.49
2017-12-15T01:39:37.234Z,56.48
2017-12-15T01:40:09.094Z,56.40
2017-12-15T01:40:40.722Z,56.49
2017-12-15T01:41:12.390Z,56.34
2017-12-15T01:41:44.023Z,56.35
2017-12-15T01:42:15.646Z,56.46
2017-12-15T01:42:47.375Z,56.39
2017-12-15T01:43:19.014Z,56.32
2017-12-15T01:43:50.647Z,56.32
2017-12-15T01:44:22.299Z,56.26
2017-12-15T01:44:53.940Z,56.30
2017-12-15T01:45:25.581Z,56.38
2017-12-15T01:45:57.258Z,56.39
2017-12-15T01:46:28.878Z,56.31
2017-12-15T01:47:00.751Z,56.51
2017-12-15T01:47:32.379Z,56.58
2017-12-15T01:48:04.006Z,56.34
2017-12-15T01:48:35.744Z,56.38
2017-12-15T01:49:07.386Z,56.64
2017-12-15T01:49:39.028Z,56.36
2017-12-15T01:50:10.669Z,56.27
2017-12-15T01:50:42.309Z,56.39
2017-12-15T01:51:13.974Z,56.40
2017-12-15T01:51:45.603Z,56.46
2017-12-15T01:52:17.461Z,56.35
2017-12-15T01:52:49.094Z,56.43
2017-12-15T01:53:20.828Z,56.43
2017-12-15T01:53:52.493Z,56.54
2017-12-15T01:54:24.122Z,56.51
2017-12-15T01:54:56.060Z,56.51
2017-12-15T01:55:27.704Z,56.53
2017-12-15T01:55:59.344Z,56.56
2017-12-15T01:56:30.997Z,56.46
2017-12-15T01:57:02.821Z,56.68
2017-12-15T01:57:34.579Z,56.61
2017-12-15T01:58:06.216Z,56.63
2017-12-15T01:58:37.858Z,56.67
2017-12-15T01:59:09.504Z,56.73
2017-12-15T01:59:41.144Z,56.78
2017-12-15T02:00:12.784Z,56.91
2017-12-15T02:00:44.429Z,57.02
2017-12-15T02:01:16.068Z,57.13
2017-12-15T02:01:47.712Z,57.20
2017-12-15T02:02:19.390Z,57.21
2017-12-15T02:02:51.014Z,57.19
2017-12-15T02:03:22.638Z,57.24
2017-12-15T02:03:54.277Z,57.30
2017-12-15T02:04:25.921Z,57.39
2017-12-15T02:04:57.564Z,57.46
2017-12-15T02:05:29.206Z,57.67
2017-12-15T02:06:00.848Z,57.94
2017-12-15T02:06:32.489Z,57.80
2017-12-15T02:07:04.129Z,57.93
2017-12-15T02:07:35.771Z,57.85
2017-12-15T02:08:07.419Z,57.96
2017-12-15T02:08:39.052Z,57.98
2017-12-15T02:09:10.699Z,58.13
2017-12-15T02:09:42.350Z,58.08
2017-12-15T02:10:14.182Z,58.36
2017-12-15T02:10:45.933Z,58.31
2017-12-15T02:11:17.574Z,58.53
2017-12-15T02:11:49.216Z,58.36
2017-12-15T02:12:20.855Z,58.66
2017-12-15T02:12:52.538Z,58.52
2017-12-15T02:13:24.171Z,58.64
2017-12-15T02:13:55.802Z,58.54
2017-12-15T02:14:27.430Z,58.64
2017-12-15T02:14:59.068Z,58.61
2017-12-15T02:15:30.709Z,58.73
2017-12-15T02:16:02.349Z,58.69
2017-12-15T02:16:33.991Z,58.77
2017-12-15T02:17:05.636Z,58.65
2017-12-15T02:17:37.276Z,58.58
2017-12-15T02:18:08.945Z,58.71
2017-12-15T02:18:40.574Z,58.63
2017-12-15T02:19:12.206Z,58.72
2017-12-15T02:19:43.846Z,58.82
2017-12-15T02:20:15.486Z,59.07
2017-12-15T02:20:47.126Z,59.13
2017-12-15T02:21:18.795Z,58.84
2017-12-15T02:21:50.417Z,58.91
2017-12-15T02:22:22.054Z,58.95
2017-12-15T02:22:53.692Z,59.02
2017-12-15T02:23:25.363Z,59.06
2017-12-15T02:23:56.990Z,59.09
2017-12-15T02:24:28.818Z,59.13
2017-12-15T02:25:00.572Z,59.13
2017-12-15T02:25:32.210Z,59.20
2017-12-15T02:26:03.852Z,59.20
2017-12-15T02:26:35.494Z,59.25
2017-12-15T02:27:07.139Z,59.28
2017-12-15T02:27:38.807Z,59.26
2017-12-15T02:28:10.433Z,59.38
2017-12-15T02:28:42.065Z,59.34
2017-12-15T02:29:13.703Z,59.66
2017-12-15T02:29:45.345Z,59.42
2017-12-15T02:30:16.991Z,59.49
2017-12-15T02:30:48.879Z,59.36
2017-12-15T02:31:20.582Z,59.45
2017-12-15T02:31:52.493Z,59.54
2017-12-15T02:32:24.127Z,59.45
2017-12-15T02:32:55.763Z,59.45
2017-12-15T02:33:27.394Z,59.43
2017-12-15T02:33:59.024Z,59.59
2017-12-15T02:34:30.656Z,59.63
2017-12-15T02:35:02.282Z,59.60
2017-12-15T02:35:34.023Z,59.43
2017-12-15T02:36:05.706Z,59.28
2017-12-15T02:36:37.335Z,59.69
2017-12-15T02:37:08.959Z,59.67
2017-12-15T02:37:40.705Z,59.87
2017-12-15T02:38:12.451Z,60.02
2017-12-15T02:38:44.181Z,59.92
2017-12-15T02:39:15.814Z,59.79
2017-12-15T02:39:47.463Z,59.91
2017-12-15T02:40:19.108Z,60.16
2017-12-15T02:40:50.750Z,59.64
2017-12-15T02:41:22.414Z,59.98
2017-12-15T02:41:54.040Z,59.82
2017-12-15T02:42:25.675Z,59.93
2017-12-15T02:42:57.320Z,60.06
2017-12-15T02:43:28.983Z,59.85
2017-12-15T02:44:00.609Z,59.90
2017-12-15T02:44:32.243Z,59.83
2017-12-15T02:45:03.882Z,60.02
2017-12-15T02:45:35.522Z,60.26
2017-12-15T02:46:07.165Z,60.18
2017-12-15T02:46:38.807Z,60.17
2017-12-15T02:47:10.479Z,60.24
2017-12-15T02:47:42.102Z,60.09
2017-12-15T02:48:13.740Z,60.29
2017-12-15T02:48:45.569Z,60.34
2017-12-15T02:49:17.327Z,60.12
2017-12-15T02:49:48.966Z,60.23
2017-12-15T02:50:20.607Z,60.22
2017-12-15T02:50:52.254Z,60.17
2017-12-15T02:51:23.894Z,60.39
2017-12-15T02:51:55.918Z,60.34
2017-12-15T02:52:27.795Z,60.17
2017-12-15T02:52:59.431Z,60.05
2017-12-15T02:53:31.073Z,60.15
2017-12-15T02:54:02.707Z,60.13
2017-12-15T02:54:34.358Z,60.14
2017-12-15T02:55:06.003Z,60.29
2017-12-15T02:55:37.653Z,59.98
2017-12-15T02:56:09.595Z,60.27
2017-12-15T02:56:41.236Z,59.98
2017-12-15T02:57:12.865Z,60.05
2017-12-15T02:57:44.519Z,60.00
2017-12-15T02:58:16.465Z,59.99
2017-12-15T02:58:48.108Z,59.96
2017-12-15T02:59:19.778Z,59.99
2017-12-15T02:59:51.405Z,59.94
2017-12-15T03:00:23.344Z,59.99
2017-12-15T03:00:54.980Z,59.90
2017-12-15T03:01:26.622Z,59.72
2017-12-15T03:01:58.254Z,59.76
2017-12-15T03:02:29.879Z,59.56
2017-12-15T03:03:01.510Z,59.62
2017-12-15T03:03:33.137Z,59.57
2017-12-15T03:04:04.766Z,59.58
2017-12-15T03:04:36.435Z,59.46
2017-12-15T03:05:08.061Z,59.43
2017-12-15T03:05:39.682Z,59.32
2017-12-15T03:06:11.310Z,59.33
2017-12-15T03:06:43.046Z,59.21
2017-12-15T03:07:14.715Z,59.18
2017-12-15T03:07:46.339Z,59.22
2017-12-15T03:08:18.280Z,59.29
2017-12-15T03:08:50.228Z,59.28
2017-12-15T03:09:21.869Z,59.24
2017-12-15T03:09:53.511Z,59.14
2017-12-15T03:10:25.139Z,59.03
2017-12-15T03:10:56.767Z,59.13
2017-12-15T03:11:28.401Z,59.20
2017-12-15T03:12:00.026Z,59.15
2017-12-15T03:12:31.662Z,59.21
2017-12-15T03:13:03.291Z,59.28
2017-12-15T03:13:34.914Z,59.20
2017-12-15T03:14:06.648Z,59.23
2017-12-15T03:14:38.278Z,59.20
2017-12-15T03:15:09.928Z,59.33
2017-12-15T03:15:41.573Z,59.31
2017-12-15T03:16:13.239Z,59.56
2017-12-15T03:16:45.046Z,59.52
2017-12-15T03:17:16.805Z,59.51
2017-12-15T03:17:48.449Z,59.42
2017-12-15T03:18:20.282Z,59.52
2017-12-15T03:18:52.039Z,59.69
2017-12-15T03:19:23.679Z,59.53
2017-12-15T03:19:55.321Z,59.53
2017-12-15T03:20:27.012Z,59.51
2017-12-15T03:20:58.850Z,59.47
2017-12-15T03:21:30.479Z,59.41
2017-12-15T03:22:02.135Z,59.51
2017-12-15T03:22:33.762Z,59.40
2017-12-15T03:23:05.394Z,59.46
2017-12-15T03:23:37.122Z,59.41
2017-12-15T03:24:08.750Z,59.50
2017-12-15T03:24:40.404Z,59.48
2017-12-15T03:25:12.045Z,59.44
2017-12-15T03:25:43.715Z,59.45
2017-12-15T03:26:15.343Z,59.37
2017-12-15T03:26:47.281Z,59.45
2017-12-15T03:27:19.230Z,59.42
2017-12-15T03:27:50.872Z,59.49
2017-12-15T03:28:22.543Z,59.45
2017-12-15T03:28:54.166Z,59.40
2017-12-15T03:29:26.025Z,59.43
2017-12-15T03:29:57.649Z,59.36
2017-12-15T03:30:29.390Z,59.40
2017-12-15T03:31:01.031Z,59.28
2017-12-15T03:31:32.680Z,59.22
2017-12-15T03:32:04.305Z,59.23
2017-12-15T03:32:35.983Z,59.38
2017-12-15T03:33:07.601Z,59.32
2017-12-15T03:33:39.237Z,59.29
2017-12-15T03:34:10.878Z,59.26
2017-12-15T03:34:42.523Z,59.23
2017-12-15T03:35:14.150Z,59.18
2017-12-15T03:35:45.778Z,59.15
2017-12-15T03:36:17.414Z,59.19
2017-12-15T03:36:49.042Z,59.28
2017-12-15T03:37:20.674Z,59.25
2017-12-15T03:37:52.375Z,59.16
2017-12-15T03:38:24.014Z,59.18
2017-12-15T03:38:55.659Z,59.17
2017-12-15T03:39:27.298Z,59.15
2017-12-15T03:39:58.940Z,59.02
2017-12-15T03:40:30.582Z,59.11
2017-12-15T03:41:02.415Z,59.02
2017-12-15T03:41:34.038Z,59.12
2017-12-15T03:42:05.670Z,59.06
2017-12-15T03:42:37.303Z,59.12
2017-12-15T03:43:08.966Z,59.03
2017-12-15T03:43:40.589Z,58.96
2017-12-15T03:44:12.222Z,59.00
2017-12-15T03:44:43.894Z,59.11
2017-12-15T03:45:15.527Z,59.17
2017-12-15T03:45:47.155Z,59.20
2017-12-15T03:46:18.786Z,59.20
2017-12-15T03:46:50.408Z,59.24
2017-12-15T03:47:22.040Z,59.24
2017-12-15T03:47:53.872Z,59.28
2017-12-15T03:48:25.517Z,59.27
2017-12-15T03:48:57.162Z,59.24
2017-12-15T03:49:28.805Z,59.21
2017-12-15T03:50:00.466Z,59.18
2017-12-15T03:50:32.094Z,59.19
2017-12-15T03:51:03.730Z,59.18
2017-12-15T03:51:35.372Z,59.16
2017-12-15T03:52:07.321Z,59.12
2017-12-15T03:52:38.963Z,59.22
2017-12-15T03:53:10.601Z,59.16
2017-12-15T03:53:42.243Z,59.13
2017-12-15T03:54:13.910Z,59.24
2017-12-15T03:54:45.591Z,59.00
2017-12-15T03:55:17.222Z,59.09
2017-12-15T03:55:48.855Z,59.07
2017-12-15T03:56:20.477Z,59.15
2017-12-15T03:56:52.110Z,59.12
2017-12-15T03:57:23.744Z,59.13
2017-12-15T03:57:55.381Z,59.09
2017-12-15T03:58:27.020Z,59.18
2017-12-15T03:58:58.662Z,59.05
2017-12-15T03:59:30.559Z,59.03
2017-12-15T04:00:02.274Z,58.98
2017-12-15T04:00:33.902Z,58.95
2017-12-15T04:01:05.534Z,58.92
2017-12-15T04:01:37.182Z,58.97
2017-12-15T04:02:08.824Z,58.95
2017-12-15T04:02:40.990Z,58.88
2017-12-15T04:03:12.723Z,59.36
2017-12-15T04:03:44.598Z,59.06
2017-12-15T04:04:16.262Z,59.04
2017-12-15T04:04:47.894Z,58.97
2017-12-15T04:05:19.568Z,59.11
2017-12-15T04:05:51.198Z,59.04
2017-12-15T04:06:22.823Z,59.04
2017-12-15T04:06:54.449Z,59.00
2017-12-15T04:07:26.079Z,59.00
2017-12-15T04:07:57.806Z,59.03
2017-12-15T04:08:29.448Z,59.01
2017-12-15T04:09:01.087Z,58.97
2017-12-15T04:09:32.729Z,59.08
2017-12-15T04:10:04.384Z,58.97
2017-12-15T04:10:36.031Z,59.05
2017-12-15T04:11:07.663Z,58.97
2017-12-15T04:11:39.300Z,58.99
2017-12-15T04:12:10.939Z,59.13
2017-12-15T04:12:42.584Z,59.05
2017-12-15T04:13:14.217Z,59.16
2017-12-15T04:13:45.867Z,59.22
2017-12-15T04:14:17.506Z,59.13
2017-12-15T04:14:49.149Z,59.18
2017-12-15T04:15:20.791Z,59.15
2017-12-15T04:15:52.462Z,59.27
2017-12-15T04:16:24.091Z,59.18
2017-12-15T04:16:55.722Z,59.16
2017-12-15T04:17:27.346Z,59.22
2017-12-15T04:17:58.971Z,59.40
2017-12-15T04:18:30.598Z,59.32
2017-12-15T04:19:02.228Z,59.33
2017-12-15T04:19:33.859Z,59.21
2017-12-15T04:20:05.485Z,59.32
2017-12-15T04:20:37.118Z,59.25
2017-12-15T04:21:08.787Z,59.33
2017-12-15T04:21:40.415Z,59.36
2017-12-15T04:22:12.043Z,59.48
2017-12-15T04:22:43.780Z,59.48
2017-12-15T04:23:15.423Z,59.57
2017-12-15T04:23:47.083Z,59.50
2017-12-15T04:24:18.710Z,59.49
2017-12-15T04:24:50.371Z,59.50
2017-12-15T04:25:21.998Z,59.69
2017-12-15T04:25:53.627Z,59.72
2017-12-15T04:26:25.272Z,59.68
2017-12-15T04:26:56.911Z,59.64
2017-12-15T04:27:28.557Z,59.79
2017-12-15T04:28:00.196Z,59.65
2017-12-15T04:28:31.840Z,59.85
2017-12-15T04:29:03.479Z,59.71
2017-12-15T04:29:35.124Z,59.81
2017-12-15T04:30:06.786Z,59.91
2017-12-15T04:30:38.418Z,59.81
2017-12-15T04:31:10.357Z,59.88
2017-12-15T04:31:41.999Z,60.01
2017-12-15T04:32:13.644Z,60.20
2017-12-15T04:32:45.280Z,59.91
2017-12-15T04:33:16.958Z,59.97
2017-12-15T04:33:48.586Z,59.99
2017-12-15T04:34:20.215Z,60.36
2017-12-15T04:34:52.158Z,60.45
2017-12-15T04:35:23.797Z,60.29
2017-12-15T04:35:55.439Z,60.33
2017-12-15T04:36:27.083Z,60.41
2017-12-15T04:36:58.956Z,60.55
2017-12-15T04:37:30.582Z,60.38
2017-12-15T04:38:02.242Z,60.45
2017-12-15T04:38:33.955Z,60.38
2017-12-15T04:39:05.597Z,60.46
2017-12-15T04:39:37.242Z,60.63
2017-12-15T04:40:08.884Z,60.56
2017-12-15T04:40:40.526Z,60.56
2017-12-15T04:41:12.167Z,60.50
2017-12-15T04:41:43.834Z,60.66
2017-12-15T04:42:15.458Z,60.62
2017-12-15T04:42:47.134Z,60.69
2017-12-15T04:43:18.767Z,60.75
2017-12-15T04:43:50.391Z,60.57
2017-12-15T04:44:22.254Z,60.70
2017-12-15T04:44:53.882Z,60.72
2017-12-15T04:45:25.514Z,60.72
2017-12-15T04:45:57.252Z,60.63
2017-12-15T04:46:28.894Z,60.95
2017-12-15T04:47:00.533Z,61.08
2017-12-15T04:47:32.182Z,60.84
2017-12-15T04:48:03.864Z,61.13
2017-12-15T04:48:35.499Z,61.02
2017-12-15T04:49:07.162Z,60.95
2017-12-15T04:49:38.786Z,60.90
2017-12-15T04:50:10.414Z,61.05
2017-12-15T04:50:42.042Z,61.18
2017-12-15T04:51:13.909Z,61.05
2017-12-15T04:51:45.538Z,61.03
2017-12-15T04:52:17.262Z,61.08
2017-12-15T04:52:48.901Z,61.17
2017-12-15T04:53:20.567Z,61.15
2017-12-15T04:53:52.195Z,61.01
2017-12-15T04:54:24.137Z,61.09
2017-12-15T04:54:56.086Z,61.22
2017-12-15T04:55:27.718Z,61.62
2017-12-15T04:55:59.348Z,61.36
2017-12-15T04:56:31.012Z,61.43
2017-12-15T04:57:02.763Z,61.37
2017-12-15T04:57:34.395Z,61.27
2017-12-15T04:58:06.245Z,61.29
2017-12-15T04:58:37.886Z,61.19
2017-12-15T04:59:09.528Z,61.27
2017-12-15T04:59:41.154Z,61.23
2017-12-15T05:00:12.841Z,61.03
2017-12-15T05:00:44.470Z,61.34
2017-12-15T05:01:16.119Z,61.12
2017-12-15T05:01:47.747Z,61.20
2017-12-15T05:02:19.687Z,61.20
2017-12-15T05:02:51.329Z,61.08
2017-12-15T05:03:22.968Z,61.12
2017-12-15T05:03:54.611Z,61.16
2017-12-15T05:04:26.252Z,61.23
2017-12-15T05:04:57.893Z,61.15
2017-12-15T05:05:29.817Z,60.93
2017-12-15T05:06:01.442Z,61.08
2017-12-15T05:06:33.062Z,60.90
2017-12-15T05:07:04.686Z,60.97
2017-12-15T05:07:36.413Z,61.05
2017-12-15T05:08:08.057Z,61.00
2017-12-15T05:08:39.694Z,60.87
2017-12-15T05:09:11.338Z,60.84
2017-12-15T05:09:42.978Z,60.74
2017-12-15T05:10:14.620Z,60.74
2017-12-15T05:10:46.291Z,60.65
2017-12-15T05:11:17.922Z,60.62
2017-12-15T05:11:49.554Z,60.69
2017-12-15T05:12:21.198Z,60.67
2017-12-15T05:12:52.833Z,60.59
2017-12-15T05:13:24.506Z,60.59
2017-12-15T05:13:56.134Z,60.46
2017-12-15T05:14:27.763Z,60.40
2017-12-15T05:14:59.399Z,60.54
2017-12-15T05:15:31.043Z,60.41
2017-12-15T05:16:02.991Z,60.43
2017-12-15T05:16:34.619Z,60.49
2017-12-15T05:17:06.274Z,60.37
2017-12-15T05:17:37.914Z,60.28
2017-12-15T05:18:09.556Z,60.39
2017-12-15T05:18:41.226Z,60.30
2017-12-15T05:19:12.850Z,60.38
2017-12-15T05:19:44.676Z,60.31
2017-12-15T05:20:16.434Z,60.31
2017-12-15T05:20:48.075Z,60.26
2017-12-15T05:21:19.714Z,60.33
2017-12-15T05:21:51.356Z,60.27
2017-12-15T05:22:22.998Z,60.25
2017-12-15T05:22:54.640Z,60.22
2017-12-15T05:23:26.270Z,60.16
2017-12-15T05:23:57.894Z,60.11
2017-12-15T05:24:29.568Z,60.08
2017-12-15T05:25:01.201Z,60.21
2017-12-15T05:25:32.849Z,60.13
2017-12-15T05:26:04.498Z,60.18
2017-12-15T05:26:36.136Z,60.31
2017-12-15T05:27:07.797Z,60.29
2017-12-15T05:27:39.471Z,60.37
2017-12-15T05:28:11.111Z,60.28
2017-12-15T05:28:42.743Z,60.44
2017-12-15T05:29:14.366Z,60.40
2017-12-15T05:29:46.295Z,60.40
2017-12-15T05:30:17.934Z,60.32
2017-12-15T05:30:49.562Z,60.32
2017-12-15T05:31:21.218Z,60.28
2017-12-15T05:31:52.858Z,60.34
2017-12-15T05:32:24.501Z,60.25
2017-12-15T05:32:56.162Z,60.32
2017-12-15T05:33:27.987Z,60.31
2017-12-15T05:33:59.737Z,60.26
2017-12-15T05:34:31.378Z,60.36
2017-12-15T05:35:03.048Z,60.32
2017-12-15T05:35:34.674Z,60.43
2017-12-15T05:36:06.303Z,60.42
2017-12-15T05:36:37.946Z,60.41
2017-12-15T05:37:09.588Z,60.34
2017-12-15T05:37:41.233Z,60.30
2017-12-15T05:38:12.872Z,60.25
2017-12-15T05:38:44.518Z,60.25
2017-12-15T05:39:16.155Z,60.18
2017-12-15T05:39:47.795Z,60.22
2017-12-15T05:40:19.458Z,60.13
2017-12-15T05:40:51.114Z,60.14
2017-12-15T05:41:22.734Z,60.60
2017-12-15T05:41:54.368Z,60.45
2017-12-15T05:42:26.007Z,60.38
2017-12-15T05:42:57.649Z,60.35
2017-12-15T05:43:29.318Z,60.24
2017-12-15T05:44:00.946Z,60.31
2017-12-15T05:44:32.942Z,60.31
2017-12-15T05:45:04.551Z,60.34
2017-12-15T05:45:36.171Z,60.34
2017-12-15T05:46:07.799Z,60.27
2017-12-15T05:46:39.447Z,60.54
2017-12-15T05:47:11.119Z,60.42
2017-12-15T05:47:42.741Z,60.31
2017-12-15T05:48:14.568Z,60.35
2017-12-15T05:48:46.325Z,60.27
2017-12-15T05:49:17.964Z,60.26
2017-12-15T05:49:49.605Z,60.15
2017-12-15T05:50:21.251Z,60.29
2017-12-15T05:50:52.892Z,60.23
2017-12-15T05:51:24.531Z,60.15
2017-12-15T05:51:56.198Z,60.15
2017-12-15T05:52:27.827Z,60.24
2017-12-15T05:52:59.767Z,60.26
2017-12-15T05:53:31.408Z,60.11
2017-12-15T05:54:03.048Z,60.14
2017-12-15T05:54:34.714Z,60.21
2017-12-15T05:55:06.342Z,60.21
2017-12-15T05:55:37.978Z,60.12
2017-12-15T05:56:09.620Z,60.23
2017-12-15T05:56:41.256Z,60.24
2017-12-15T05:57:12.930Z,60.17
2017-12-15T05:57:44.559Z,60.11
2017-12-15T05:58:16.186Z,60.20
2017-12-15T05:58:47.828Z,60.19
2017-12-15T05:59:19.466Z,60.16
2017-12-15T05:59:51.117Z,60.21
2017-12-15T06:00:22.982Z,60.16
2017-12-15T06:00:54.609Z,60.13
2017-12-15T06:01:26.348Z,60.20
2017-12-15T06:01:57.970Z,60.17
2017-12-15T06:02:29.646Z,60.15
2017-12-15T06:03:01.277Z,60.22
2017-12-15T06:03:32.915Z,60.15
2017-12-15T06:04:04.551Z,60.16
2017-12-15T06:04:36.196Z,60.15
2017-12-15T06:05:07.835Z,60.30
2017-12-15T06:05:39.479Z,60.27
2017-12-15T06:06:11.119Z,60.38
2017-12-15T06:06:42.748Z,60.30
2017-12-15T06:07:14.406Z,60.26
2017-12-15T06:07:46.075Z,60.33
2017-12-15T06:08:17.711Z,60.41
2017-12-15T06:08:49.533Z,60.40
2017-12-15T06:09:21.283Z,60.57
2017-12-15T06:09:52.919Z,60.48
2017-12-15T06:10:24.570Z,60.39
2017-12-15T06:10:56.254Z,60.44
2017-12-15T06:11:27.886Z,60.36
2017-12-15T06:11:59.511Z,60.47
2017-12-15T06:12:31.138Z,60.58
2017-12-15T06:13:02.945Z,60.45
2017-12-15T06:13:34.570Z,60.57
2017-12-15T06:14:06.194Z,60.66
2017-12-15T06:14:37.822Z,60.54
2017-12-15T06:15:09.450Z,60.66
2017-12-15T06:15:41.080Z,60.79
2017-12-15T06:16:12.932Z,60.95
2017-12-15T06:16:44.881Z,61.02
2017-12-15T06:17:16.523Z,61.02
2017-12-15T06:17:48.355Z,60.93
2017-12-15T06:18:19.982Z,60.92
2017-12-15T06:18:51.756Z,61.07
2017-12-15T06:19:23.400Z,61.04
2017-12-15T06:19:55.037Z,61.00
2017-12-15T06:20:26.681Z,60.89
2017-12-15T06:20:58.320Z,61.04
2017-12-15T06:21:29.991Z,60.88
2017-12-15T06:22:01.621Z,60.88
2017-12-15T06:22:33.253Z,60.94
2017-12-15T06:23:04.888Z,60.86
2017-12-15T06:23:36.533Z,60.96
2017-12-15T06:24:08.166Z,60.84
2017-12-15T06:24:39.816Z,60.88
2017-12-15T06:25:11.458Z,61.00
2017-12-15T06:25:43.155Z,60.87
2017-12-15T06:26:15.051Z,60.87
2017-12-15T06:26:46.692Z,60.83
2017-12-15T06:27:18.334Z,60.95
2017-12-15T06:27:49.974Z,60.85
2017-12-15T06:28:21.606Z,60.93
2017-12-15T06:28:53.230Z,60.87
2017-12-15T06:29:24.854Z,60.82
2017-12-15T06:29:56.478Z,60.93
2017-12-15T06:30:28.107Z,60.86
2017-12-15T06:30:59.730Z,60.93
2017-12-15T06:31:31.396Z,60.98
2017-12-15T06:32:03.018Z,61.06
2017-12-15T06:32:34.753Z,60.92
2017-12-15T06:33:06.394Z,60.87
2017-12-15T06:33:38.033Z,61.08
2017-12-15T06:34:09.986Z,60.97
2017-12-15T06:34:41.627Z,60.95
2017-12-15T06:35:13.269Z,61.06
2017-12-15T06:35:44.894Z,60.96
2017-12-15T06:36:16.522Z,60.88
2017-12-15T06:36:48.502Z,60.92
2017-12-15T06:37:20.143Z,60.96
2017-12-15T06:37:51.783Z,61.08
2017-12-15T06:38:23.425Z,61.02
2017-12-15T06:38:55.069Z,61.10
2017-12-15T06:39:26.711Z,60.84
2017-12-15T06:39:58.338Z,61.07
2017-12-15T06:40:29.995Z,61.18
2017-12-15T06:41:01.633Z,61.21
2017-12-15T06:41:33.298Z,61.13
2017-12-15T06:42:04.927Z,61.15
2017-12-15T06:42:36.561Z,61.17
2017-12-15T06:43:08.202Z,61.03
2017-12-15T06:43:39.843Z,61.01
2017-12-15T06:44:11.514Z,61.03
2017-12-15T06:44:43.145Z,61.38
2017-12-15T06:45:14.979Z,61.14
2017-12-15T06:45:46.725Z,61.46
2017-12-15T06:46:18.363Z,59.18
2017-12-15T06:46:50.003Z,51.93
2017-12-15T06:47:21.648Z,48.99
2017-12-15T06:47:53.287Z,46.79